createdAt,value
2022-10-17T00:01:05.467Z,6.68
2022-10-17T00:03:37.319Z,6.67
2022-10-17T00:06:14.245Z,6.70
2022-10-17T00:08:43.864Z,6.72
2022-10-17T00:11:20.821Z,6.69
2022-10-17T00:13:50.718Z,6.72
2022-10-17T00:16:25.958Z,6.70
2022-10-17T00:18:53.800Z,6.68
2022-10-17T00:21:22.488Z,6.66
2022-10-17T00:23:50.426Z,6.62
2022-10-17T00:26:19.554Z,6.60
2022-10-17T00:28:51.336Z,6.56
2022-10-17T00:31:21.322Z,6.56
2022-10-17T00:33:51.665Z,6.55
2022-10-17T00:36:24.528Z,6.53
2022-10-17T00:38:57.907Z,6.42
2022-10-17T00:41:29.512Z,6.37
2022-10-17T00:44:05.972Z,6.39
2022-10-17T00:46:38.738Z,6.38
2022-10-17T00:49:12.721Z,6.30
2022-10-17T00:51:45.304Z,6.18
2022-10-17T00:54:14.892Z,6.16
2022-10-17T00:56:47.214Z,6.12
2022-10-17T00:59:16.673Z,6.11
2022-10-17T01:01:54.116Z,6.03
2022-10-17T01:04:21.791Z,6.00
2022-10-17T01:06:49.400Z,5.95
2022-10-17T01:09:17.108Z,5.74
2022-10-17T01:11:44.644Z,5.76
2022-10-17T01:14:41.932Z,5.68
2022-10-17T01:17:25.621Z,5.59
2022-10-17T01:20:26.972Z,5.60
2022-10-17T01:22:57.498Z,5.58
2022-10-17T01:25:36.521Z,5.59
2022-10-17T01:31:15.718Z,5.59
2022-10-17T01:34:13.091Z,5.55
2022-10-17T01:36:48.884Z,5.64
2022-10-17T01:39:34.409Z,5.55
2022-10-17T01:42:15.707Z,5.37
2022-10-17T01:44:57.735Z,5.42
2022-10-17T01:47:32.641Z,5.40
2022-10-17T01:50:16.818Z,5.38
2022-10-17T01:53:16.507Z,5.36
2022-10-17T01:55:49.088Z,5.35
2022-10-17T01:58:47.614Z,5.29
2022-10-17T02:01:18.093Z,5.29
2022-10-17T02:03:49.684Z,5.32
2022-10-17T02:06:20.079Z,5.32
2022-10-17T02:08:50.488Z,5.30
2022-10-17T02:11:19.484Z,5.36
2022-10-17T02:14:03.060Z,5.33
2022-10-17T02:17:01.104Z,5.31
2022-10-17T02:19:45.332Z,5.29
2022-10-17T02:22:22.069Z,5.31
2022-10-17T02:24:56.919Z,5.28
2022-10-17T02:27:27.773Z,5.26
2022-10-17T02:30:10.049Z,5.25
2022-10-17T02:32:52.090Z,5.26
2022-10-17T02:35:25.500Z,5.30
2022-10-17T02:37:54.272Z,5.24
2022-10-17T02:40:26.703Z,5.29
2022-10-17T02:42:55.810Z,5.24
2022-10-17T02:45:26.366Z,5.27
2022-10-17T02:48:15.581Z,5.25
2022-10-17T02:50:56.396Z,5.26
2022-10-17T02:53:32.780Z,5.25
2022-10-17T02:56:10.820Z,5.23
2022-10-17T02:58:40.340Z,5.19
2022-10-17T03:01:08.884Z,5.09
2022-10-17T03:03:36.408Z,5.13
2022-10-17T03:06:04.115Z,5.11
2022-10-17T03:08:31.658Z,5.06
2022-10-17T03:11:00.956Z,4.93
2022-10-17T03:13:30.497Z,4.87
2022-10-17T03:15:58.646Z,4.87
2022-10-17T03:18:26.277Z,4.81
2022-10-17T03:20:58.768Z,4.91
2022-10-17T03:23:26.371Z,4.90
2022-10-17T03:25:56.513Z,4.92
2022-10-17T03:28:25.918Z,4.91
2022-10-17T03:30:53.609Z,4.91
2022-10-17T03:33:21.287Z,4.87
2022-10-17T03:38:18.431Z,4.75
2022-10-17T03:40:55.091Z,4.77
2022-10-17T03:43:23.000Z,4.87
2022-10-17T03:45:51.124Z,4.82
2022-10-17T03:48:19.711Z,4.84
2022-10-17T03:50:48.580Z,4.84
2022-10-17T03:53:16.084Z,4.85
2022-10-17T03:55:43.648Z,4.82
2022-10-17T03:58:11.456Z,4.77
2022-10-17T04:00:39.229Z,4.70
2022-10-17T04:03:06.725Z,4.70
2022-10-17T04:05:34.887Z,4.84
2022-10-17T04:08:04.778Z,4.80
2022-10-17T04:11:07.843Z,4.96
2022-10-17T04:13:36.107Z,4.99
2022-10-17T04:16:07.123Z,4.86
2022-10-17T04:18:38.104Z,4.84
2022-10-17T04:21:07.311Z,4.81
2022-10-17T04:23:35.680Z,4.78
2022-10-17T04:26:12.628Z,4.73
2022-10-17T04:28:40.346Z,4.77
2022-10-17T04:31:12.255Z,4.81
2022-10-17T04:33:59.237Z,4.79
2022-10-17T04:36:27.229Z,4.87
2022-10-17T04:38:55.286Z,4.86
2022-10-17T04:41:23.483Z,4.87
2022-10-17T04:43:51.421Z,4.86
2022-10-17T04:46:21.068Z,4.90
2022-10-17T04:48:50.584Z,4.91
2022-10-17T04:51:20.789Z,4.94
2022-10-17T04:54:10.042Z,4.89
2022-10-17T04:56:40.616Z,4.89
2022-10-17T04:59:09.244Z,4.85
2022-10-17T05:01:39.164Z,4.74
2022-10-17T05:04:07.417Z,4.79
2022-10-17T05:06:35.340Z,4.87
2022-10-17T05:09:21.339Z,4.83
2022-10-17T05:11:49.402Z,4.87
2022-10-17T05:14:19.192Z,4.91
2022-10-17T05:16:46.736Z,4.84
2022-10-17T05:19:14.467Z,4.88
2022-10-17T05:21:47.055Z,4.91
2022-10-17T05:24:15.503Z,4.86
2022-10-17T05:26:42.985Z,4.84
2022-10-17T05:29:10.692Z,4.89
2022-10-17T05:31:43.668Z,4.83
2022-10-17T05:34:13.913Z,4.85
2022-10-17T05:36:43.238Z,4.91
2022-10-17T05:39:14.887Z,4.93
2022-10-17T05:41:43.129Z,4.98
2022-10-17T05:44:10.687Z,5.07
2022-10-17T05:46:41.645Z,5.19
2022-10-17T05:49:19.692Z,5.26
2022-10-17T05:51:58.592Z,5.30
2022-10-17T05:54:27.177Z,5.17
2022-10-17T05:56:56.108Z,5.16
2022-10-17T05:59:27.985Z,5.29
2022-10-17T06:02:04.336Z,5.32
2022-10-17T06:04:32.087Z,5.32
2022-10-17T06:07:02.137Z,5.41
2022-10-17T06:09:31.131Z,5.51
2022-10-17T06:11:58.725Z,5.51
2022-10-17T06:14:27.345Z,5.58
2022-10-17T06:17:01.568Z,5.71
2022-10-17T06:19:29.328Z,5.75
2022-10-17T06:21:57.180Z,5.80
2022-10-17T06:24:26.811Z,5.83
2022-10-17T06:26:55.607Z,5.91
2022-10-17T06:29:23.178Z,5.94
2022-10-17T06:31:54.107Z,5.98
2022-10-17T06:34:22.262Z,6.05
2022-10-17T06:36:49.965Z,6.08
2022-10-17T06:39:19.409Z,6.14
2022-10-17T06:42:04.302Z,6.11
2022-10-17T06:44:46.786Z,6.21
2022-10-17T06:47:33.007Z,6.16
2022-10-17T06:50:08.971Z,6.23
2022-10-17T06:52:51.828Z,6.30
2022-10-17T06:55:38.444Z,6.33
2022-10-17T06:58:17.995Z,6.30
2022-10-17T07:01:04.820Z,6.35
2022-10-17T07:03:33.029Z,6.42
2022-10-17T07:06:02.215Z,6.51
2022-10-17T07:08:30.714Z,6.50
2022-10-17T07:11:10.031Z,6.66
2022-10-17T07:13:39.283Z,6.76
2022-10-17T07:16:08.069Z,6.76
2022-10-17T07:18:36.984Z,6.81
2022-10-17T07:21:05.532Z,6.92
2022-10-17T07:23:36.777Z,6.98
2022-10-17T07:26:13.221Z,6.98
2022-10-17T07:28:43.684Z,7.00
2022-10-17T07:31:31.860Z,7.00
2022-10-17T07:34:00.781Z,7.15
2022-10-17T07:36:29.185Z,7.23
2022-10-17T07:38:58.353Z,7.30
2022-10-17T07:41:27.913Z,7.32
2022-10-17T07:43:56.118Z,7.39
2022-10-17T07:46:29.819Z,7.53
2022-10-17T07:48:57.439Z,7.56
2022-10-17T07:51:25.207Z,7.61
2022-10-17T07:53:52.812Z,7.63
2022-10-17T07:56:24.722Z,7.74
2022-10-17T07:58:54.354Z,7.91
2022-10-17T08:01:21.974Z,7.92
2022-10-17T08:03:49.756Z,8.03
2022-10-17T08:06:17.757Z,8.12
2022-10-17T08:08:45.945Z,8.00
2022-10-17T08:11:16.427Z,8.16
2022-10-17T08:13:45.317Z,8.35
2022-10-17T08:16:13.679Z,8.41
2022-10-17T08:18:43.118Z,8.48
2022-10-17T08:21:13.573Z,8.60
2022-10-17T08:23:41.799Z,8.76
2022-10-17T08:26:10.968Z,8.87
2022-10-17T08:28:40.571Z,8.87
2022-10-17T08:31:11.357Z,8.98
2022-10-17T08:33:39.228Z,9.14
2022-10-17T08:36:08.396Z,9.25
2022-10-17T08:38:41.427Z,9.42
2022-10-17T08:41:22.416Z,9.50
2022-10-17T08:44:02.113Z,9.68
2022-10-17T08:46:37.351Z,9.80
2022-10-17T08:49:17.690Z,9.84
2022-10-17T08:51:58.577Z,10.05
2022-10-17T08:54:47.258Z,10.22
2022-10-17T08:57:17.458Z,10.21
2022-10-17T08:59:50.370Z,10.32
2022-10-17T09:02:36.177Z,10.38
2022-10-17T09:05:31.688Z,10.40
2022-10-17T09:08:43.237Z,10.47
2022-10-17T09:11:37.003Z,10.56
2022-10-17T09:14:26.353Z,10.60
2022-10-17T09:17:12.103Z,10.79
2022-10-17T09:19:45.405Z,10.86
2022-10-17T09:22:24.881Z,10.77
2022-10-17T09:24:55.658Z,10.75
2022-10-17T09:27:23.409Z,10.85
2022-10-17T09:30:03.156Z,10.94
2022-10-17T09:32:32.379Z,11.08
2022-10-17T09:35:00.349Z,11.17
2022-10-17T09:37:32.996Z,11.26
2022-10-17T09:40:01.188Z,11.41
2022-10-17T09:42:29.069Z,11.51
2022-10-17T09:45:24.776Z,11.68
2022-10-17T09:48:05.848Z,11.72
2022-10-17T09:50:34.429Z,11.73
2022-10-17T09:53:13.945Z,11.88
2022-10-17T09:55:49.408Z,12.02
2022-10-17T09:58:17.555Z,12.12
2022-10-17T10:00:50.407Z,12.18
2022-10-17T10:03:26.424Z,12.20
2022-10-17T10:06:05.071Z,12.33
2022-10-17T10:08:54.407Z,12.45
2022-10-17T10:11:44.509Z,12.48
2022-10-17T10:14:20.742Z,12.60
2022-10-17T10:16:54.196Z,12.70
2022-10-17T10:19:49.939Z,12.71
2022-10-17T10:22:20.420Z,12.74
2022-10-17T10:25:17.455Z,12.78
2022-10-17T10:27:47.802Z,12.92
2022-10-17T10:30:22.752Z,13.05
2022-10-17T10:32:50.656Z,13.19
2022-10-17T10:35:24.044Z,13.18
2022-10-17T10:37:56.540Z,13.05
2022-10-17T10:40:39.181Z,13.02
2022-10-17T10:43:06.822Z,13.07
2022-10-17T10:45:53.386Z,13.18
2022-10-17T10:48:27.672Z,13.20
2022-10-17T10:51:08.089Z,13.25
2022-10-17T10:53:50.892Z,13.30
2022-10-17T10:56:31.750Z,13.31
2022-10-17T10:59:06.779Z,13.32
2022-10-17T11:01:46.447Z,13.40
2022-10-17T11:04:43.881Z,13.51
2022-10-17T11:07:20.350Z,13.59
2022-10-17T11:09:56.892Z,13.66
2022-10-17T11:12:36.418Z,13.73
2022-10-17T11:15:40.438Z,13.75
2022-10-17T11:18:33.336Z,13.84
2022-10-17T11:21:12.587Z,13.88
2022-10-17T11:23:46.749Z,13.90
2022-10-17T11:26:29.011Z,13.92
2022-10-17T11:28:58.737Z,13.94
2022-10-17T11:31:29.346Z,13.85
2022-10-17T11:34:21.608Z,13.83
2022-10-17T11:36:54.647Z,13.90
2022-10-17T11:42:20.996Z,14.85
2022-10-17T11:44:52.616Z,14.66
2022-10-17T11:47:48.417Z,14.48
2022-10-17T11:53:24.695Z,14.53
2022-10-17T11:55:54.630Z,14.56
2022-10-17T11:59:07.322Z,14.45
2022-10-17T12:01:44.768Z,14.30
2022-10-17T12:04:43.754Z,14.23
2022-10-17T12:07:21.112Z,14.17
2022-10-17T12:10:16.087Z,14.19
2022-10-17T12:12:43.794Z,14.29
2022-10-17T12:15:14.093Z,14.42
2022-10-17T12:17:45.051Z,14.53
2022-10-17T12:20:24.320Z,14.65
2022-10-17T12:23:03.849Z,14.64
2022-10-17T12:28:24.042Z,14.67
2022-10-17T12:30:54.975Z,14.78
2022-10-17T12:33:37.978Z,14.77
2022-10-17T12:36:17.834Z,14.81
2022-10-17T12:38:49.827Z,14.84
2022-10-17T12:41:37.889Z,14.86
2022-10-17T12:44:14.988Z,14.80
2022-10-17T12:46:51.221Z,14.78
2022-10-17T12:49:53.092Z,14.77
2022-10-17T12:52:46.961Z,14.83
2022-10-17T12:55:18.344Z,14.68
2022-10-17T12:58:04.079Z,14.64
2022-10-17T13:01:05.224Z,14.65
2022-10-17T13:03:41.269Z,14.73
2022-10-17T13:06:20.177Z,14.75
2022-10-17T13:09:02.481Z,14.78
2022-10-17T13:11:38.044Z,14.75
2022-10-17T13:14:15.381Z,14.75
2022-10-17T13:17:06.536Z,14.70
2022-10-17T13:19:43.246Z,14.59
2022-10-17T13:22:24.514Z,14.59
2022-10-17T13:25:05.465Z,14.53
2022-10-17T13:27:35.852Z,14.53
2022-10-17T13:30:24.809Z,14.51
2022-10-17T13:32:54.385Z,14.50
2022-10-17T13:35:55.474Z,14.43
2022-10-17T13:38:28.793Z,14.38
2022-10-17T13:41:05.924Z,14.34
2022-10-17T13:43:45.112Z,14.34
2022-10-17T13:46:37.504Z,14.29
2022-10-17T13:49:17.061Z,14.22
2022-10-17T13:51:47.813Z,14.21
2022-10-17T13:54:40.414Z,14.18
2022-10-17T13:57:23.391Z,14.15
2022-10-17T14:00:09.950Z,14.09
2022-10-17T14:02:43.452Z,14.03
2022-10-17T14:05:19.002Z,13.97
2022-10-17T14:08:10.847Z,13.96
2022-10-17T14:10:42.556Z,13.95
2022-10-17T14:13:25.933Z,13.90
2022-10-17T14:15:56.345Z,13.86
2022-10-17T14:18:36.848Z,13.79
2022-10-17T14:24:26.405Z,13.72
2022-10-17T14:27:01.463Z,13.62
2022-10-17T14:29:31.620Z,13.57
2022-10-17T14:32:13.849Z,13.63
2022-10-17T14:34:45.216Z,13.57
2022-10-17T14:37:44.015Z,13.41
2022-10-17T14:40:24.853Z,13.25
2022-10-17T14:42:54.609Z,13.08
2022-10-17T14:45:23.713Z,12.93
2022-10-17T14:47:53.844Z,12.77
2022-10-17T14:50:30.535Z,12.65
2022-10-17T14:53:05.161Z,12.70
2022-10-17T14:55:35.552Z,12.62
2022-10-17T14:58:24.815Z,12.46
2022-10-17T15:00:53.218Z,12.32
2022-10-17T15:03:20.957Z,12.23
2022-10-17T15:05:50.977Z,12.15
2022-10-17T15:08:20.938Z,12.05
2022-10-17T15:10:49.808Z,11.95
2022-10-17T15:13:28.287Z,11.87
2022-10-17T15:15:57.058Z,11.78
2022-10-17T15:18:24.553Z,11.68
2022-10-17T15:21:04.859Z,11.62
2022-10-17T15:23:32.852Z,11.52
2022-10-17T15:26:01.095Z,11.52
2022-10-17T15:28:29.117Z,11.39
2022-10-17T15:30:56.623Z,11.22
2022-10-17T15:33:24.398Z,11.15
2022-10-17T15:35:52.133Z,11.07
2022-10-17T15:38:19.755Z,11.01
2022-10-17T15:40:50.899Z,10.81
2022-10-17T15:43:20.051Z,10.65
2022-10-17T15:45:48.266Z,10.62
2022-10-17T15:48:23.367Z,10.60
2022-10-17T15:50:50.863Z,10.55
2022-10-17T15:53:18.460Z,10.47
2022-10-17T15:55:46.050Z,10.44
2022-10-17T15:58:16.552Z,10.46
2022-10-17T16:00:44.038Z,10.39
2022-10-17T16:03:12.013Z,10.38
2022-10-17T16:05:40.935Z,10.39
2022-10-17T16:08:08.413Z,10.35
2022-10-17T16:10:40.667Z,10.25
2022-10-17T16:13:24.116Z,10.23
2022-10-17T16:15:51.890Z,10.15
2022-10-17T16:18:20.248Z,10.07
2022-10-17T16:20:48.171Z,10.08
2022-10-17T16:23:15.850Z,10.14
2022-10-17T16:25:43.715Z,10.06
2022-10-17T16:28:12.250Z,9.98
2022-10-17T16:30:44.930Z,9.94
2022-10-17T16:33:12.870Z,9.83
2022-10-17T16:35:41.848Z,9.77
2022-10-17T16:38:10.970Z,9.74
2022-10-17T16:40:40.390Z,9.53
2022-10-17T16:43:12.299Z,9.50
2022-10-17T16:45:40.524Z,9.53
2022-10-17T16:48:09.953Z,9.43
2022-10-17T16:50:39.976Z,9.44
2022-10-17T16:53:07.528Z,9.32
2022-10-17T16:55:35.113Z,9.21
2022-10-17T16:58:03.924Z,9.23
2022-10-17T17:00:31.778Z,9.19
2022-10-17T17:02:59.308Z,9.10
2022-10-17T17:05:27.320Z,9.11
2022-10-17T17:07:56.025Z,9.00
2022-10-17T17:10:24.966Z,9.11
2022-10-17T17:12:52.597Z,9.10
2022-10-17T17:15:20.069Z,9.05
2022-10-17T17:17:53.324Z,9.07
2022-10-17T17:20:22.881Z,9.06
2022-10-17T17:22:51.986Z,9.04
2022-10-17T17:25:19.703Z,8.95
2022-10-17T17:27:47.883Z,8.84
2022-10-17T17:30:15.873Z,8.95
2022-10-17T17:32:44.404Z,8.83
2022-10-17T17:35:12.055Z,8.86
2022-10-17T17:37:39.543Z,8.87
2022-10-17T17:40:09.358Z,8.78
2022-10-17T17:42:37.188Z,8.83
2022-10-17T17:45:05.429Z,8.84
2022-10-17T17:47:33.625Z,8.70
2022-10-17T17:50:03.676Z,8.72
2022-10-17T17:52:31.855Z,8.57
2022-10-17T17:54:59.480Z,8.63
2022-10-17T17:57:29.525Z,8.70
2022-10-17T17:59:57.136Z,8.60
2022-10-17T18:02:24.641Z,8.51
2022-10-17T18:04:52.126Z,8.40
2022-10-17T18:07:19.724Z,8.43
2022-10-17T18:09:48.250Z,8.47
2022-10-17T18:12:16.127Z,8.42
2022-10-17T18:14:43.713Z,8.34
2022-10-17T18:17:12.157Z,8.39
2022-10-17T18:19:40.488Z,8.44
2022-10-17T18:22:13.446Z,8.53
2022-10-17T18:24:41.848Z,8.61
2022-10-17T18:27:10.541Z,8.59
2022-10-17T18:29:38.248Z,8.64
2022-10-17T18:32:06.447Z,8.67
2022-10-17T18:34:34.325Z,8.64
2022-10-17T18:37:02.733Z,8.66
2022-10-17T18:39:30.472Z,8.65
2022-10-17T18:41:58.162Z,8.69
2022-10-17T18:44:25.717Z,8.67
2022-10-17T18:46:53.412Z,8.65
2022-10-17T18:49:25.077Z,8.63
2022-10-17T18:51:52.594Z,8.61
2022-10-17T18:54:22.212Z,8.59
2022-10-17T18:56:52.842Z,8.59
2022-10-17T18:59:21.571Z,8.58
2022-10-17T19:01:49.524Z,8.58
2022-10-17T19:04:18.129Z,8.62
2022-10-17T19:06:46.272Z,8.61
2022-10-17T19:09:14.727Z,8.60
2022-10-17T19:11:42.970Z,8.58
2022-10-17T19:14:14.914Z,8.59
2022-10-17T19:16:49.695Z,8.59
2022-10-17T19:19:23.285Z,8.57
2022-10-17T19:21:51.804Z,8.61
2022-10-17T19:24:25.085Z,8.54
2022-10-17T19:26:55.208Z,8.49
2022-10-17T19:29:24.540Z,8.50
2022-10-17T19:31:53.251Z,8.55
2022-10-17T19:34:20.786Z,8.54
2022-10-17T19:36:49.517Z,8.49
2022-10-17T19:39:20.017Z,8.47
2022-10-17T19:41:48.624Z,8.41
2022-10-17T19:44:17.077Z,8.41
2022-10-17T19:46:46.943Z,8.44
2022-10-17T19:49:15.455Z,8.40
2022-10-17T19:51:43.389Z,8.37
2022-10-17T19:54:11.466Z,8.34
2022-10-17T19:56:40.388Z,8.34
2022-10-17T19:59:08.515Z,8.33
2022-10-17T20:01:40.756Z,8.33
2022-10-17T20:04:11.016Z,8.33
2022-10-17T20:06:40.871Z,8.32
2022-10-17T20:09:13.949Z,8.28
2022-10-17T20:11:49.308Z,8.27
2022-10-17T20:14:17.823Z,8.28
2022-10-17T20:16:50.149Z,8.26
2022-10-17T20:19:17.967Z,8.25
2022-10-17T20:21:45.601Z,8.25
2022-10-17T20:24:16.595Z,8.25
2022-10-17T20:26:45.111Z,8.29
2022-10-17T20:29:18.603Z,8.29
2022-10-17T20:31:47.571Z,8.29
2022-10-17T20:34:18.555Z,8.34
2022-10-17T20:36:47.783Z,8.32
2022-10-17T20:39:16.826Z,8.34
2022-10-17T20:41:45.395Z,8.32
2022-10-17T20:44:13.756Z,8.34
2022-10-17T20:46:52.688Z,8.32
2022-10-17T20:49:28.105Z,8.31
2022-10-17T20:51:55.782Z,8.27
2022-10-17T20:54:23.394Z,8.25
2022-10-17T20:56:51.285Z,8.27
2022-10-17T20:59:18.883Z,8.26
2022-10-17T21:01:47.325Z,8.28
2022-10-17T21:04:44.710Z,8.29
2022-10-17T21:07:02.720Z,8.29
2022-10-17T21:09:30.748Z,8.31
2022-10-17T21:14:37.881Z,8.28
2022-10-17T21:17:06.077Z,8.28
2022-10-17T21:19:34.121Z,8.28
2022-10-17T21:22:01.861Z,8.22
2022-10-17T21:24:30.616Z,8.21
2022-10-17T21:26:58.924Z,8.19
2022-10-17T21:29:26.613Z,8.16
2022-10-17T21:31:54.157Z,8.18
2022-10-17T21:34:26.515Z,8.12
2022-10-17T21:36:54.478Z,8.08
2022-10-17T21:39:24.249Z,8.09
2022-10-17T21:41:52.782Z,8.12
2022-10-17T21:44:22.360Z,8.23
2022-10-17T21:46:51.596Z,8.33
2022-10-17T21:49:21.978Z,8.37
2022-10-17T21:51:51.314Z,8.43
2022-10-17T21:54:20.713Z,8.47
2022-10-17T21:56:48.223Z,8.46
2022-10-17T21:59:16.473Z,8.48
2022-10-17T22:01:46.067Z,8.52
2022-10-17T22:04:16.782Z,8.54
2022-10-17T22:06:48.307Z,8.56
2022-10-17T22:09:26.167Z,8.57
2022-10-17T22:11:56.512Z,8.55
2022-10-17T22:14:26.536Z,8.53
2022-10-17T22:16:54.807Z,8.50
2022-10-17T22:19:25.707Z,8.46
2022-10-17T22:21:54.267Z,8.43
2022-10-17T22:24:22.804Z,8.42
2022-10-17T22:26:50.853Z,8.31
2022-10-17T22:29:18.734Z,8.26
2022-10-17T22:31:47.829Z,8.23
2022-10-17T22:34:17.082Z,8.19
2022-10-17T22:36:45.217Z,8.17
2022-10-17T22:39:13.482Z,8.07
2022-10-17T22:41:40.936Z,8.07
2022-10-17T22:44:08.709Z,8.05
2022-10-17T22:46:36.294Z,7.99
2022-10-17T22:49:04.083Z,7.97
2022-10-17T22:51:32.241Z,7.96
2022-10-17T22:54:00.804Z,7.99
2022-10-17T22:56:28.457Z,7.99
2022-10-17T22:58:56.881Z,8.02
2022-10-17T23:01:26.389Z,8.04
2022-10-17T23:03:54.127Z,8.05
2022-10-17T23:06:22.162Z,8.05
2022-10-17T23:08:50.390Z,8.03
2022-10-17T23:11:18.163Z,8.05
2022-10-17T23:13:45.633Z,8.05
2022-10-17T23:16:13.142Z,8.03
2022-10-17T23:18:41.427Z,8.05
2022-10-17T23:21:10.523Z,8.08
2022-10-17T23:23:39.760Z,8.04
2022-10-17T23:26:09.943Z,7.99
2022-10-17T23:28:40.777Z,7.97
2022-10-17T23:31:17.172Z,7.99
2022-10-17T23:33:46.496Z,7.98
2022-10-17T23:36:15.888Z,7.95
2022-10-17T23:38:45.157Z,7.89
2022-10-17T23:41:13.748Z,7.84
2022-10-17T23:43:44.158Z,7.79
2022-10-17T23:46:12.132Z,7.80
2022-10-17T23:48:40.506Z,7.77
2022-10-17T23:51:08.821Z,7.74
2022-10-17T23:53:38.666Z,7.64
2022-10-17T23:56:08.408Z,7.64
2022-10-17T23:58:36.919Z,7.61
